sensor_id;sensor_type;location;lat;lon;timestamp;pressure;altitude;pressure_sealevel;temperature;humidity
78309;BME280;67566;42.022;21.356;2023-05-20T00:01:32;98868.97;;;14.63;67.81
78309;BME280;67566;42.022;21.356;2023-05-20T00:03:58;98868.66;;;14.56;68.60
78309;BME280;67566;42.022;21.356;2023-05-20T00:06:23;98867.25;;;14.49;68.43
78309;BME280;67566;42.022;21.356;2023-05-20T00:08:49;98859.69;;;14.43;68.62
78309;BME280;67566;42.022;21.356;2023-05-20T00:11:14;98847.28;;;14.29;68.97
78309;BME280;67566;42.022;21.356;2023-05-20T00:13:42;98849.34;;;14.24;69.55
78309;BME280;67566;42.022;21.356;2023-05-20T00:16:07;98845.44;;;14.12;69.67
78309;BME280;67566;42.022;21.356;2023-05-20T00:18:33;98853.47;;;14.12;68.67
78309;BME280;67566;42.022;21.356;2023-05-20T00:20:58;98853.00;;;14.10;69.37
78309;BME280;67566;42.022;21.356;2023-05-20T00:23:24;98848.41;;;14.11;69.25
78309;BME280;67566;42.022;21.356;2023-05-20T00:25:49;98851.09;;;14.11;70.14
78309;BME280;67566;42.022;21.356;2023-05-20T00:28:15;98860.06;;;14.06;69.64
78309;BME280;67566;42.022;21.356;2023-05-20T00:30:41;98853.78;;;14.11;70.10
78309;BME280;67566;42.022;21.356;2023-05-20T00:33:06;98853.94;;;14.14;69.77
78309;BME280;67566;42.022;21.356;2023-05-20T00:35:32;98845.56;;;14.16;69.91
78309;BME280;67566;42.022;21.356;2023-05-20T00:37:58;98838.78;;;14.19;69.67
78309;BME280;67566;42.022;21.356;2023-05-20T00:40:23;98841.47;;;14.19;69.98
78309;BME280;67566;42.022;21.356;2023-05-20T00:42:49;98843.50;;;14.22;70.13
78309;BME280;67566;42.022;21.356;2023-05-20T00:45:15;98848.56;;;14.23;69.99
78309;BME280;67566;42.022;21.356;2023-05-20T00:47:41;98844.81;;;14.15;70.44
78309;BME280;67566;42.022;21.356;2023-05-20T00:50:08;98843.22;;;14.14;69.76
78309;BME280;67566;42.022;21.356;2023-05-20T00:52:35;98842.75;;;14.12;70.33
78309;BME280;67566;42.022;21.356;2023-05-20T00:55:02;98836.63;;;14.12;69.55
78309;BME280;67566;42.022;21.356;2023-05-20T00:57:27;98836.13;;;14.01;70.06
78309;BME280;67566;42.022;21.356;2023-05-20T00:59:53;98828.91;;;13.93;70.26
78309;BME280;67566;42.022;21.356;2023-05-20T01:02:19;98827.03;;;13.85;69.97
78309;BME280;67566;42.022;21.356;2023-05-20T01:04:45;98831.28;;;13.86;70.07
78309;BME280;67566;42.022;21.356;2023-05-20T01:07:13;98829.41;;;13.86;70.17
78309;BME280;67566;42.022;21.356;2023-05-20T01:09:39;98827.66;;;13.82;70.14
78309;BME280;67566;42.022;21.356;2023-05-20T01:12:25;98818.53;;;13.83;70.38
78309;BME280;67566;42.022;21.356;2023-05-20T01:14:58;98817.09;;;13.85;70.69
78309;BME280;67566;42.022;21.356;2023-05-20T01:17:31;98816.16;;;13.90;70.41
78309;BME280;67566;42.022;21.356;2023-05-20T01:20:00;98809.72;;;13.91;70.27
78309;BME280;67566;42.022;21.356;2023-05-20T01:22:26;98808.91;;;13.90;70.48
78309;BME280;67566;42.022;21.356;2023-05-20T01:24:52;98804.19;;;13.87;70.09
78309;BME280;67566;42.022;21.356;2023-05-20T01:27:18;98808.63;;;13.74;70.26
78309;BME280;67566;42.022;21.356;2023-05-20T01:29:47;98816.03;;;13.69;70.60
78309;BME280;67566;42.022;21.356;2023-05-20T01:32:18;98819.16;;;13.62;70.73
78309;BME280;67566;42.022;21.356;2023-05-20T01:34:47;98816.19;;;13.55;71.07
78309;BME280;67566;42.022;21.356;2023-05-20T01:37:13;98827.66;;;13.55;70.82
78309;BME280;67566;42.022;21.356;2023-05-20T01:39:40;98818.06;;;13.46;71.16
78309;BME280;67566;42.022;21.356;2023-05-20T01:42:07;98814.88;;;13.35;71.17
78309;BME280;67566;42.022;21.356;2023-05-20T01:44:34;98811.75;;;13.33;71.15
78309;BME280;67566;42.022;21.356;2023-05-20T01:46:59;98804.34;;;13.30;71.66
78309;BME280;67566;42.022;21.356;2023-05-20T01:49:28;98806.81;;;13.26;71.66
78309;BME280;67566;42.022;21.356;2023-05-20T01:51:54;98804.94;;;13.18;71.84
78309;BME280;67566;42.022;21.356;2023-05-20T01:54:19;98808.22;;;13.15;71.82
78309;BME280;67566;42.022;21.356;2023-05-20T01:56:45;98804.13;;;13.09;72.13
78309;BME280;67566;42.022;21.356;2023-05-20T01:59:11;98810.72;;;13.02;72.38
78309;BME280;67566;42.022;21.356;2023-05-20T02:01:37;98807.59;;;13.00;72.30
78309;BME280;67566;42.022;21.356;2023-05-20T02:04:02;98803.50;;;13.03;72.42
78309;BME280;67566;42.022;21.356;2023-05-20T02:06:28;98800.19;;;13.06;72.56
78309;BME280;67566;42.022;21.356;2023-05-20T02:08:53;98804.91;;;13.00;72.88
78309;BME280;67566;42.022;21.356;2023-05-20T02:11:19;98805.66;;;12.92;72.90
78309;BME280;67566;42.022;21.356;2023-05-20T02:13:45;98808.00;;;12.85;72.96
78309;BME280;67566;42.022;21.356;2023-05-20T02:16:10;98819.75;;;12.75;72.67
78309;BME280;67566;42.022;21.356;2023-05-20T02:18:36;98818.16;;;12.65;73.27
78309;BME280;67566;42.022;21.356;2023-05-20T02:21:02;98814.50;;;12.61;72.69
78309;BME280;67566;42.022;21.356;2023-05-20T02:23:28;98819.06;;;12.61;73.10
78309;BME280;67566;42.022;21.356;2023-05-20T02:25:54;98825.38;;;12.65;73.21
78309;BME280;67566;42.022;21.356;2023-05-20T02:28:19;98821.31;;;12.68;72.79
78309;BME280;67566;42.022;21.356;2023-05-20T02:30:45;98827.44;;;12.68;73.01
78309;BME280;67566;42.022;21.356;2023-05-20T02:33:11;98838.41;;;12.66;73.09
78309;BME280;67566;42.022;21.356;2023-05-20T02:35:38;98838.13;;;12.68;73.32
78309;BME280;67566;42.022;21.356;2023-05-20T02:38:04;98830.28;;;12.72;72.85
78309;BME280;67566;42.022;21.356;2023-05-20T02:40:30;98824.31;;;12.75;72.98
78309;BME280;67566;42.022;21.356;2023-05-20T02:42:55;98813.19;;;12.81;72.45
78309;BME280;67566;42.022;21.356;2023-05-20T02:45:21;98821.19;;;12.81;72.86
78309;BME280;67566;42.022;21.356;2023-05-20T02:47:46;98824.63;;;12.73;73.08
78309;BME280;67566;42.022;21.356;2023-05-20T02:50:12;98825.50;;;12.51;73.38
78309;BME280;67566;42.022;21.356;2023-05-20T02:52:37;98822.31;;;12.49;73.35
78309;BME280;67566;42.022;21.356;2023-05-20T02:55:07;98818.88;;;12.49;73.23
78309;BME280;67566;42.022;21.356;2023-05-20T02:57:32;98824.38;;;12.52;72.63
78309;BME280;67566;42.022;21.356;2023-05-20T03:00:02;98822.00;;;12.51;73.42
78309;BME280;67566;42.022;21.356;2023-05-20T03:02:29;98829.06;;;12.46;73.40
78309;BME280;67566;42.022;21.356;2023-05-20T03:04:55;98826.88;;;12.49;73.50
78309;BME280;67566;42.022;21.356;2023-05-20T03:07:20;98830.50;;;12.53;73.75
78309;BME280;67566;42.022;21.356;2023-05-20T03:09:46;98830.97;;;12.46;74.01
78309;BME280;67566;42.022;21.356;2023-05-20T03:12:12;98838.81;;;12.42;73.41
78309;BME280;67566;42.022;21.356;2023-05-20T03:14:37;98844.63;;;12.44;73.86
78309;BME280;67566;42.022;21.356;2023-05-20T03:17:03;98845.22;;;12.41;73.70
78309;BME280;67566;42.022;21.356;2023-05-20T03:19:28;98847.13;;;12.41;73.59
78309;BME280;67566;42.022;21.356;2023-05-20T03:21:54;98845.03;;;12.38;73.66
78309;BME280;67566;42.022;21.356;2023-05-20T03:24:19;98837.94;;;12.33;73.44
78309;BME280;67566;42.022;21.356;2023-05-20T03:26:47;98843.75;;;12.35;73.81
78309;BME280;67566;42.022;21.356;2023-05-20T03:29:13;98841.47;;;12.42;72.83
78309;BME280;67566;42.022;21.356;2023-05-20T03:31:38;98846.97;;;12.46;73.30
78309;BME280;67566;42.022;21.356;2023-05-20T03:34:04;98849.78;;;12.41;73.53
78309;BME280;67566;42.022;21.356;2023-05-20T03:36:29;98848.50;;;12.38;73.28
78309;BME280;67566;42.022;21.356;2023-05-20T03:38:55;98853.34;;;12.36;73.73
78309;BME280;67566;42.022;21.356;2023-05-20T03:41:21;98849.72;;;12.32;73.50
78309;BME280;67566;42.022;21.356;2023-05-20T03:43:47;98850.03;;;12.31;74.01
78309;BME280;67566;42.022;21.356;2023-05-20T03:46:12;98853.19;;;12.33;73.62
78309;BME280;67566;42.022;21.356;2023-05-20T03:48:38;98854.25;;;12.32;73.72
78309;BME280;67566;42.022;21.356;2023-05-20T03:51:03;98853.97;;;12.33;74.12
78309;BME280;67566;42.022;21.356;2023-05-20T03:53:29;98854.91;;;12.28;74.32
78309;BME280;67566;42.022;21.356;2023-05-20T03:55:54;98861.78;;;12.30;73.99
78309;BME280;67566;42.022;21.356;2023-05-20T03:58:20;98869.56;;;12.40;73.96
78309;BME280;67566;42.022;21.356;2023-05-20T04:00:47;98865.84;;;12.50;74.08
78309;BME280;67566;42.022;21.356;2023-05-20T04:03:13;98861.94;;;12.56;73.71
78309;BME280;67566;42.022;21.356;2023-05-20T04:05:38;98858.97;;;12.57;73.76
78309;BME280;67566;42.022;21.356;2023-05-20T04:08:04;98859.44;;;12.59;74.38
78309;BME280;67566;42.022;21.356;2023-05-20T04:10:30;98859.63;;;12.63;73.86
78309;BME280;67566;42.022;21.356;2023-05-20T04:12:58;98865.44;;;12.65;74.45
78309;BME280;67566;42.022;21.356;2023-05-20T04:15:24;98866.72;;;12.68;74.59
78309;BME280;67566;42.022;21.356;2023-05-20T04:17:50;98867.50;;;12.68;74.32
78309;BME280;67566;42.022;21.356;2023-05-20T04:20:16;98872.72;;;12.73;74.04
78309;BME280;67566;42.022;21.356;2023-05-20T04:22:43;98872.72;;;12.73;74.00
78309;BME280;67566;42.022;21.356;2023-05-20T04:25:09;98870.38;;;12.80;74.19
78309;BME280;67566;42.022;21.356;2023-05-20T04:27:34;98868.06;;;12.88;74.32
78309;BME280;67566;42.022;21.356;2023-05-20T04:30:05;98879.28;;;12.98;73.93
78309;BME280;67566;42.022;21.356;2023-05-20T04:32:31;98873.47;;;13.05;74.19
78309;BME280;67566;42.022;21.356;2023-05-20T04:34:58;98880.41;;;13.15;74.28
78309;BME280;67566;42.022;21.356;2023-05-20T04:37:26;98873.38;;;13.28;73.95
78309;BME280;67566;42.022;21.356;2023-05-20T04:39:52;98869.19;;;13.35;74.03
78309;BME280;67566;42.022;21.356;2023-05-20T04:42:18;98861.16;;;13.44;73.40
78309;BME280;67566;42.022;21.356;2023-05-20T04:44:46;98868.41;;;13.52;73.56
78309;BME280;67566;42.022;21.356;2023-05-20T04:47:12;98870.00;;;13.62;73.77
78309;BME280;67566;42.022;21.356;2023-05-20T04:49:38;98864.97;;;13.78;73.11
78309;BME280;67566;42.022;21.356;2023-05-20T04:52:04;98862.91;;;13.92;72.15
78309;BME280;67566;42.022;21.356;2023-05-20T04:54:30;98870.31;;;14.04;72.71
78309;BME280;67566;42.022;21.356;2023-05-20T04:56:57;98868.25;;;14.19;72.23
78309;BME280;67566;42.022;21.356;2023-05-20T04:59:22;98872.66;;;14.32;71.88
78309;BME280;67566;42.022;21.356;2023-05-20T05:01:48;98879.22;;;14.43;71.05
78309;BME280;67566;42.022;21.356;2023-05-20T05:04:13;98869.16;;;14.49;71.21
78309;BME280;67566;42.022;21.356;2023-05-20T05:06:39;98866.44;;;14.58;70.79
78309;BME280;67566;42.022;21.356;2023-05-20T05:09:04;98871.50;;;14.68;71.64
78309;BME280;67566;42.022;21.356;2023-05-20T05:11:30;98868.63;;;14.73;71.18
78309;BME280;67566;42.022;21.356;2023-05-20T05:13:55;98863.06;;;14.78;70.44
78309;BME280;67566;42.022;21.356;2023-05-20T05:16:21;98865.22;;;14.94;69.90
78309;BME280;67566;42.022;21.356;2023-05-20T05:18:46;98865.31;;;15.06;70.46
78309;BME280;67566;42.022;21.356;2023-05-20T05:21:12;98870.97;;;15.13;69.96
78309;BME280;67566;42.022;21.356;2023-05-20T05:23:37;98874.22;;;15.27;69.42
78309;BME280;67566;42.022;21.356;2023-05-20T05:26:03;98878.84;;;15.39;69.52
78309;BME280;67566;42.022;21.356;2023-05-20T05:28:29;98872.94;;;15.55;69.01
78309;BME280;67566;42.022;21.356;2023-05-20T05:30:54;98869.66;;;15.70;68.36
78309;BME280;67566;42.022;21.356;2023-05-20T05:33:22;98869.63;;;15.79;67.44
78309;BME280;67566;42.022;21.356;2023-05-20T05:35:49;98871.59;;;15.91;67.50
78309;BME280;67566;42.022;21.356;2023-05-20T05:38:14;98877.13;;;16.07;67.48
78309;BME280;67566;42.022;21.356;2023-05-20T05:40:40;98875.72;;;16.21;67.12
78309;BME280;67566;42.022;21.356;2023-05-20T05:43:06;98873.31;;;16.29;66.12
78309;BME280;67566;42.022;21.356;2023-05-20T05:45:32;98872.53;;;16.40;66.12
78309;BME280;67566;42.022;21.356;2023-05-20T05:47:57;98871.47;;;16.54;65.16
78309;BME280;67566;42.022;21.356;2023-05-20T05:50:23;98871.47;;;16.66;65.36
78309;BME280;67566;42.022;21.356;2023-05-20T05:52:48;98877.53;;;16.75;64.69
78309;BME280;67566;42.022;21.356;2023-05-20T05:55:14;98874.56;;;16.89;64.62
78309;BME280;67566;42.022;21.356;2023-05-20T05:57:39;98873.34;;;16.99;64.94
78309;BME280;67566;42.022;21.356;2023-05-20T06:00:05;98870.41;;;17.04;63.92
78309;BME280;67566;42.022;21.356;2023-05-20T06:02:32;98869.97;;;17.14;64.07
78309;BME280;67566;42.022;21.356;2023-05-20T06:05:03;98870.19;;;17.34;63.83
78309;BME280;67566;42.022;21.356;2023-05-20T06:07:29;98869.03;;;17.47;63.88
78309;BME280;67566;42.022;21.356;2023-05-20T06:09:55;98878.09;;;17.55;62.66
78309;BME280;67566;42.022;21.356;2023-05-20T06:12:20;98880.66;;;17.64;62.35
78309;BME280;67566;42.022;21.356;2023-05-20T06:14:46;98871.06;;;17.79;62.29
78309;BME280;67566;42.022;21.356;2023-05-20T06:17:12;98863.44;;;17.93;62.13
78309;BME280;67566;42.022;21.356;2023-05-20T06:19:37;98863.50;;;18.09;61.45
78309;BME280;67566;42.022;21.356;2023-05-20T06:22:03;98859.25;;;18.24;61.22
78309;BME280;67566;42.022;21.356;2023-05-20T06:24:28;98861.59;;;18.25;60.51
78309;BME280;67566;42.022;21.356;2023-05-20T06:26:54;98856.03;;;18.18;61.17
78309;BME280;67566;42.022;21.356;2023-05-20T06:29:19;98850.28;;;18.20;60.60
78309;BME280;67566;42.022;21.356;2023-05-20T06:31:45;98844.31;;;18.26;61.21
78309;BME280;67566;42.022;21.356;2023-05-20T06:34:11;98844.75;;;18.44;60.36
78309;BME280;67566;42.022;21.356;2023-05-20T06:36:36;98856.53;;;18.68;59.75
78309;BME280;67566;42.022;21.356;2023-05-20T06:39:02;98850.44;;;18.87;59.92
78309;BME280;67566;42.022;21.356;2023-05-20T06:41:28;98851.16;;;19.00;58.38
78309;BME280;67566;42.022;21.356;2023-05-20T06:43:53;98836.69;;;19.08;58.29
78309;BME280;67566;42.022;21.356;2023-05-20T06:46:19;98843.56;;;19.05;57.62
78309;BME280;67566;42.022;21.356;2023-05-20T06:48:44;98839.34;;;19.24;57.22
78309;BME280;67566;42.022;21.356;2023-05-20T06:51:10;98832.75;;;19.41;57.88
78309;BME280;67566;42.022;21.356;2023-05-20T06:53:35;98825.47;;;19.61;58.29
78309;BME280;67566;42.022;21.356;2023-05-20T06:56:01;98829.16;;;19.72;57.75
78309;BME280;67566;42.022;21.356;2023-05-20T06:58:27;98818.03;;;19.74;56.57
78309;BME280;67566;42.022;21.356;2023-05-20T07:00:53;98816.00;;;19.71;57.10
78309;BME280;67566;42.022;21.356;2023-05-20T07:03:18;98819.38;;;19.84;56.63
78309;BME280;67566;42.022;21.356;2023-05-20T07:05:44;98810.91;;;19.85;56.44
78309;BME280;67566;42.022;21.356;2023-05-20T07:08:09;98801.97;;;20.04;56.08
78309;BME280;67566;42.022;21.356;2023-05-20T07:10:35;98807.78;;;20.26;56.17
78309;BME280;67566;42.022;21.356;2023-05-20T07:13:01;98810.66;;;20.36;55.52
78309;BME280;67566;42.022;21.356;2023-05-20T07:15:26;98806.28;;;20.51;55.57
78309;BME280;67566;42.022;21.356;2023-05-20T07:17:52;98798.22;;;20.55;54.78
78309;BME280;67566;42.022;21.356;2023-05-20T07:20:17;98801.66;;;20.52;53.85
78309;BME280;67566;42.022;21.356;2023-05-20T07:22:43;98796.09;;;20.64;53.97
78309;BME280;67566;42.022;21.356;2023-05-20T07:25:09;98793.13;;;20.73;54.18
78309;BME280;67566;42.022;21.356;2023-05-20T07:27:35;98794.75;;;20.78;54.11
78309;BME280;67566;42.022;21.356;2023-05-20T07:30:01;98796.53;;;20.97;54.29
78309;BME280;67566;42.022;21.356;2023-05-20T07:32:26;98790.78;;;20.98;53.55
78309;BME280;67566;42.022;21.356;2023-05-20T07:34:52;98789.72;;;21.06;53.93
78309;BME280;67566;42.022;21.356;2023-05-20T07:37:17;98780.44;;;21.04;52.38
78309;BME280;67566;42.022;21.356;2023-05-20T07:39:43;98774.84;;;20.93;52.48
78309;BME280;67566;42.022;21.356;2023-05-20T07:42:08;98771.56;;;21.07;53.23
78309;BME280;67566;42.022;21.356;2023-05-20T07:44:34;98770.69;;;21.29;53.70
78309;BME280;67566;42.022;21.356;2023-05-20T07:46:59;98765.16;;;21.49;53.35
78309;BME280;67566;42.022;21.356;2023-05-20T07:49:25;98767.56;;;21.58;51.67
78309;BME280;67566;42.022;21.356;2023-05-20T07:51:50;98766.88;;;21.64;51.62
78309;BME280;67566;42.022;21.356;2023-05-20T07:54:16;98773.19;;;21.76;51.39
78309;BME280;67566;42.022;21.356;2023-05-20T07:56:41;98766.66;;;21.80;51.53
78309;BME280;67566;42.022;21.356;2023-05-20T07:59:07;98771.72;;;21.82;50.87
78309;BME280;67566;42.022;21.356;2023-05-20T08:01:32;98764.00;;;21.87;50.63
78309;BME280;67566;42.022;21.356;2023-05-20T08:03:58;98763.31;;;21.94;49.09
78309;BME280;67566;42.022;21.356;2023-05-20T08:06:24;98764.25;;;22.09;48.92
78309;BME280;67566;42.022;21.356;2023-05-20T08:08:50;98756.78;;;21.99;48.23
78309;BME280;67566;42.022;21.356;2023-05-20T08:11:19;98757.28;;;22.12;48.57
78309;BME280;67566;42.022;21.356;2023-05-20T08:13:46;98747.31;;;22.23;48.91
78309;BME280;67566;42.022;21.356;2023-05-20T08:16:11;98744.69;;;22.30;48.22
78309;BME280;67566;42.022;21.356;2023-05-20T08:18:39;98738.09;;;22.31;48.58
78309;BME280;67566;42.022;21.356;2023-05-20T08:21:05;98747.53;;;22.48;48.64
78309;BME280;67566;42.022;21.356;2023-05-20T08:23:34;98747.16;;;22.50;47.33
78309;BME280;67566;42.022;21.356;2023-05-20T08:26:00;98748.41;;;22.59;47.66
78309;BME280;67566;42.022;21.356;2023-05-20T08:28:30;98747.31;;;22.75;46.66
78309;BME280;67566;42.022;21.356;2023-05-20T08:30:55;98737.31;;;22.86;47.53
78309;BME280;67566;42.022;21.356;2023-05-20T08:33:22;98742.00;;;22.93;46.89
78309;BME280;67566;42.022;21.356;2023-05-20T08:35:48;98731.63;;;23.06;44.86
78309;BME280;67566;42.022;21.356;2023-05-20T08:38:14;98737.38;;;22.97;45.12
78309;BME280;67566;42.022;21.356;2023-05-20T08:40:39;98732.44;;;23.17;45.22
78309;BME280;67566;42.022;21.356;2023-05-20T08:43:05;98732.13;;;23.33;45.60
78309;BME280;67566;42.022;21.356;2023-05-20T08:45:32;98730.97;;;23.34;44.86
78309;BME280;67566;42.022;21.356;2023-05-20T08:47:59;98729.81;;;23.35;45.25
78309;BME280;67566;42.022;21.356;2023-05-20T08:50:25;98732.53;;;23.35;44.82
78309;BME280;67566;42.022;21.356;2023-05-20T08:52:50;98729.84;;;23.53;45.09
78309;BME280;67566;42.022;21.356;2023-05-20T08:55:18;98730.25;;;23.51;44.41
78309;BME280;67566;42.022;21.356;2023-05-20T08:57:55;98730.63;;;23.57;44.02
78309;BME280;67566;42.022;21.356;2023-05-20T09:00:21;98724.06;;;23.69;42.81
78309;BME280;67566;42.022;21.356;2023-05-20T09:02:54;98724.81;;;23.59;43.21
78309;BME280;67566;42.022;21.356;2023-05-20T09:05:20;98734.94;;;23.72;42.73
78309;BME280;67566;42.022;21.356;2023-05-20T09:07:46;98716.28;;;23.64;42.90
78309;BME280;67566;42.022;21.356;2023-05-20T09:10:12;98720.63;;;23.86;42.52
78309;BME280;67566;42.022;21.356;2023-05-20T09:12:38;98713.66;;;23.96;43.64
78309;BME280;67566;42.022;21.356;2023-05-20T09:15:04;98711.31;;;24.12;43.10
78309;BME280;67566;42.022;21.356;2023-05-20T09:17:30;98699.28;;;24.24;43.36
78309;BME280;67566;42.022;21.356;2023-05-20T09:19:56;98692.28;;;24.38;42.77
78309;BME280;67566;42.022;21.356;2023-05-20T09:22:22;98690.69;;;24.44;42.17
78309;BME280;67566;42.022;21.356;2023-05-20T09:24:49;98688.38;;;24.28;42.58
78309;BME280;67566;42.022;21.356;2023-05-20T09:27:15;98682.91;;;24.49;43.05
78309;BME280;67566;42.022;21.356;2023-05-20T09:29:41;98677.47;;;24.60;43.25
78309;BME280;67566;42.022;21.356;2023-05-20T09:32:09;98663.44;;;24.65;42.16
78309;BME280;67566;42.022;21.356;2023-05-20T09:34:36;98669.66;;;24.77;42.20
78309;BME280;67566;42.022;21.356;2023-05-20T09:37:02;98667.28;;;24.82;42.06
78309;BME280;67566;42.022;21.356;2023-05-20T09:39:32;98669.66;;;24.77;41.35
78309;BME280;67566;42.022;21.356;2023-05-20T09:42:22;98654.81;;;24.92;42.02
78309;BME280;67566;42.022;21.356;2023-05-20T09:44:51;98642.69;;;25.04;41.25
78309;BME280;67566;42.022;21.356;2023-05-20T09:47:18;98643.88;;;24.99;40.05
78309;BME280;67566;42.022;21.356;2023-05-20T09:49:45;98626.81;;;24.88;40.24
78309;BME280;67566;42.022;21.356;2023-05-20T09:52:14;98620.59;;;24.87;41.61
78309;BME280;67566;42.022;21.356;2023-05-20T09:54:42;98628.69;;;25.02;41.04
78309;BME280;67566;42.022;21.356;2023-05-20T09:57:08;98625.50;;;25.18;39.62
78309;BME280;67566;42.022;21.356;2023-05-20T09:59:36;98625.47;;;25.21;39.47
78309;BME280;67566;42.022;21.356;2023-05-20T10:02:02;98611.00;;;25.35;40.07
78309;BME280;67566;42.022;21.356;2023-05-20T10:04:29;98612.94;;;25.38;38.55
78309;BME280;67566;42.022;21.356;2023-05-20T10:07:10;98598.53;;;25.41;37.34
78309;BME280;67566;42.022;21.356;2023-05-20T10:12:38;98585.13;;;25.58;36.90
78309;BME280;67566;42.022;21.356;2023-05-20T10:21:16;98586.09;;;25.86;36.43
78309;BME280;67566;42.022;21.356;2023-05-20T10:23:42;98581.00;;;25.88;37.03
78309;BME280;67566;42.022;21.356;2023-05-20T10:26:08;98578.19;;;26.02;37.15
78309;BME280;67566;42.022;21.356;2023-05-20T10:28:36;98577.31;;;26.12;35.14
78309;BME280;67566;42.022;21.356;2023-05-20T10:31:13;98571.44;;;26.10;34.45
78309;BME280;67566;42.022;21.356;2023-05-20T10:33:44;98565.09;;;26.21;34.98
78309;BME280;67566;42.022;21.356;2023-05-20T10:36:09;98566.78;;;26.11;33.87
78309;BME280;67566;42.022;21.356;2023-05-20T10:38:35;98557.81;;;26.10;35.48
78309;BME280;67566;42.022;21.356;2023-05-20T10:41:07;98554.91;;;26.28;36.33
78309;BME280;67566;42.022;21.356;2023-05-20T10:43:35;98554.50;;;26.26;34.89
78309;BME280;67566;42.022;21.356;2023-05-20T10:46:02;98547.13;;;26.27;35.17
78309;BME280;67566;42.022;21.356;2023-05-20T10:48:32;98549.28;;;26.43;34.64
78309;BME280;67566;42.022;21.356;2023-05-20T10:50:59;98544.03;;;26.55;33.46
78309;BME280;67566;42.022;21.356;2023-05-20T10:53:28;98543.91;;;26.66;34.07
78309;BME280;67566;42.022;21.356;2023-05-20T10:55:55;98543.88;;;26.70;35.26
78309;BME280;67566;42.022;21.356;2023-05-20T10:58:22;98529.63;;;26.86;34.65
78309;BME280;67566;42.022;21.356;2023-05-20T11:00:49;98529.19;;;26.87;34.58
78309;BME280;67566;42.022;21.356;2023-05-20T11:03:16;98523.16;;;27.00;34.78
78309;BME280;67566;42.022;21.356;2023-05-20T11:05:43;98511.69;;;27.12;34.98
78309;BME280;67566;42.022;21.356;2023-05-20T11:08:09;98511.94;;;27.21;33.59
78309;BME280;67566;42.022;21.356;2023-05-20T11:10:35;98507.09;;;27.05;32.37
78309;BME280;67566;42.022;21.356;2023-05-20T11:13:02;98508.09;;;27.15;32.49
78309;BME280;67566;42.022;21.356;2023-05-20T11:15:29;98497.16;;;27.15;32.07
78309;BME280;67566;42.022;21.356;2023-05-20T11:18:00;98491.97;;;27.24;31.61
78309;BME280;67566;42.022;21.356;2023-05-20T11:20:26;98485.81;;;27.17;31.14
78309;BME280;67566;42.022;21.356;2023-05-20T11:22:53;98487.38;;;27.18;31.64
78309;BME280;67566;42.022;21.356;2023-05-20T11:25:20;98474.69;;;27.31;31.32
78309;BME280;67566;42.022;21.356;2023-05-20T11:27:48;98480.09;;;27.35;31.35
78309;BME280;67566;42.022;21.356;2023-05-20T11:30:14;98468.84;;;27.53;31.57
78309;BME280;67566;42.022;21.356;2023-05-20T11:32:42;98465.56;;;27.61;32.09
78309;BME280;67566;42.022;21.356;2023-05-20T11:35:20;98458.97;;;27.59;31.86
78309;BME280;67566;42.022;21.356;2023-05-20T11:37:53;98462.78;;;27.65;31.74
78309;BME280;67566;42.022;21.356;2023-05-20T11:40:23;98459.28;;;27.64;30.01
78309;BME280;67566;42.022;21.356;2023-05-20T11:42:52;98462.16;;;27.77;30.87
78309;BME280;67566;42.022;21.356;2023-05-20T11:45:17;98451.75;;;27.68;30.30
78309;BME280;67566;42.022;21.356;2023-05-20T11:47:43;98445.88;;;27.70;31.11
78309;BME280;67566;42.022;21.356;2023-05-20T11:50:09;98454.06;;;27.90;31.45
78309;BME280;67566;42.022;21.356;2023-05-20T11:52:34;98446.97;;;27.96;30.91
78309;BME280;67566;42.022;21.356;2023-05-20T11:55:00;98446.81;;;28.03;30.26
78309;BME280;67566;42.022;21.356;2023-05-20T11:57:25;98441.53;;;28.13;30.93
78309;BME280;67566;42.022;21.356;2023-05-20T11:59:51;98434.47;;;28.15;31.14
78309;BME280;67566;42.022;21.356;2023-05-20T12:02:16;98430.09;;;28.18;31.36
78309;BME280;67566;42.022;21.356;2023-05-20T12:04:42;98427.91;;;28.29;30.67
78309;BME280;67566;42.022;21.356;2023-05-20T12:07:07;98424.13;;;28.23;29.37
78309;BME280;67566;42.022;21.356;2023-05-20T12:09:34;98419.97;;;28.35;30.45
78309;BME280;67566;42.022;21.356;2023-05-20T12:12:00;98415.44;;;28.44;30.11
78309;BME280;67566;42.022;21.356;2023-05-20T12:14:26;98414.84;;;28.53;30.90
78309;BME280;67566;42.022;21.356;2023-05-20T12:16:52;98404.63;;;28.57;29.85
78309;BME280;67566;42.022;21.356;2023-05-20T12:19:18;98397.50;;;28.60;28.41
78309;BME280;67566;42.022;21.356;2023-05-20T12:21:43;98395.47;;;28.64;28.12
78309;BME280;67566;42.022;21.356;2023-05-20T12:24:11;98395.47;;;28.64;28.46
78309;BME280;67566;42.022;21.356;2023-05-20T12:26:37;98385.59;;;28.67;29.11
78309;BME280;67566;42.022;21.356;2023-05-20T12:29:02;98391.34;;;28.72;29.71
78309;BME280;67566;42.022;21.356;2023-05-20T12:31:28;98396.63;;;28.79;29.68
78309;BME280;67566;42.022;21.356;2023-05-20T12:33:53;98396.63;;;28.79;29.47
78309;BME280;67566;42.022;21.356;2023-05-20T12:36:29;98394.78;;;28.76;28.93
78309;BME280;67566;42.022;21.356;2023-05-20T12:38:55;98394.34;;;28.61;29.05
78309;BME280;67566;42.022;21.356;2023-05-20T12:41:21;98392.28;;;28.66;29.39
78309;BME280;67566;42.022;21.356;2023-05-20T12:43:46;98389.97;;;28.80;29.77
78309;BME280;67566;42.022;21.356;2023-05-20T12:46:12;98393.28;;;28.88;29.36
78309;BME280;67566;42.022;21.356;2023-05-20T12:48:37;98388.94;;;28.91;28.74
78309;BME280;67566;42.022;21.356;2023-05-20T12:51:03;98381.66;;;28.84;27.24
78309;BME280;67566;42.022;21.356;2023-05-20T12:53:47;98367.53;;;28.69;27.32
78309;BME280;67566;42.022;21.356;2023-05-20T12:56:22;98356.81;;;28.42;27.71